RYR1ZD LRCL-EGSS
Flight info
| Callsign | RYR1ZD |
|---|---|
| Flight time | 2h 38m |
| Altitude | 34000 |
| Route | ELROM DCT VERIG DCT PATAK DCT KATQA DCT RAPET DCT MASEK DCT ARPEG DCT NOGRO M40 RINIS |
| Aircraft | B738/M-SDE2E3FGHIRWXY/LB1 |
Departure
| Time | 2026-05-04 19:34 |
|---|---|
| Airport | Avram Iancu Cluj International Airport (LRCL) |
Arrival
| Time | 2026-05-04 22:12 |
|---|---|
| Airport | London Stansted Airport (EGSS) |
| Time | Latitude | Longitude | Altitude | Speed | Heading |
|---|---|---|---|---|---|
| 2026-05-04 18:46 | 46.78368 | 23.68948 | 1042 ft | 0 kts | 176° |
| 2026-05-04 19:21 | 46.78371 | 23.68948 | 1042 ft | 2 kts | 175° |
| 2026-05-04 19:21 | 46.78387 | 23.68944 | 1042 ft | 2 kts | 165° |
| 2026-05-04 19:22 | 46.78403 | 23.68936 | 1042 ft | 2 kts | 149° |
| 2026-05-04 19:22 | 46.78415 | 23.68920 | 1042 ft | 2 kts | 122° |
| 2026-05-04 19:22 | 46.78421 | 23.68898 | 1042 ft | 2 kts | 97° |
| 2026-05-04 19:22 | 46.78422 | 23.68879 | 1042 ft | 1 kts | 86° |
| 2026-05-04 19:23 | 46.78422 | 23.68875 | 1042 ft | 0 kts | 86° |
| 2026-05-04 19:28 | 46.78422 | 23.68876 | 1042 ft | 1 kts | 86° |
| 2026-05-04 19:28 | 46.78425 | 23.68912 | 1042 ft | 5 kts | 77° |
| 2026-05-04 19:28 | 46.78452 | 23.68938 | 1042 ft | 5 kts | 4° |
| 2026-05-04 19:29 | 46.78486 | 23.68928 | 1042 ft | 5 kts | 345° |
| 2026-05-04 19:29 | 46.78520 | 23.68914 | 1042 ft | 6 kts | 345° |
| 2026-05-04 19:29 | 46.78555 | 23.68931 | 1042 ft | 6 kts | 54° |
| 2026-05-04 19:29 | 46.78568 | 23.68992 | 1042 ft | 7 kts | 78° |
| 2026-05-04 19:30 | 46.78578 | 23.69063 | 1042 ft | 7 kts | 78° |
| 2026-05-04 19:30 | 46.78588 | 23.69139 | 1042 ft | 8 kts | 78° |
| 2026-05-04 19:30 | 46.78599 | 23.69224 | 1042 ft | 9 kts | 78° |
| 2026-05-04 19:30 | 46.78632 | 23.69289 | 1042 ft | 9 kts | 7° |
| 2026-05-04 19:31 | 46.78693 | 23.69268 | 1042 ft | 9 kts | 343° |
| 2026-05-04 19:31 | 46.78755 | 23.69239 | 1042 ft | 10 kts | 341° |
| 2026-05-04 19:31 | 46.78819 | 23.69207 | 1042 ft | 10 kts | 341° |
| 2026-05-04 19:31 | 46.78887 | 23.69177 | 1042 ft | 10 kts | 354° |
| 2026-05-04 19:32 | 46.78934 | 23.69241 | 1042 ft | 10 kts | 70° |
| 2026-05-04 19:32 | 46.78958 | 23.69341 | 1042 ft | 11 kts | 70° |
| 2026-05-04 19:32 | 46.78982 | 23.69445 | 1042 ft | 11 kts | 75° |
| 2026-05-04 19:32 | 46.78998 | 23.69555 | 1042 ft | 11 kts | 92° |
| 2026-05-04 19:33 | 46.79022 | 23.69621 | 1042 ft | 5 kts | 8° |
| 2026-05-04 19:33 | 46.79035 | 23.69606 | 1042 ft | 1 kts | 263° |
| 2026-05-04 19:33 | 46.79027 | 23.69595 | 1042 ft | 2 kts | 223° |
| 2026-05-04 19:33 | 46.79015 | 23.69580 | 1042 ft | 3 kts | 224° |
| 2026-05-04 19:34 | 46.78949 | 23.69308 | 1042 ft | 69 kts | 252° |
| 2026-05-04 19:34 | 46.78711 | 23.68248 | 1042 ft | 147 kts | 252° |
| 2026-05-04 19:34 | 46.78345 | 23.66596 | 1470 ft | 178 kts | 252° |
| 2026-05-04 19:34 | 46.77974 | 23.64953 | 2781 ft | 169 kts | 255° |
| 2026-05-04 19:35 | 46.77534 | 23.63316 | 3689 ft | 178 kts | 250° |
| 2026-05-04 19:35 | 46.77133 | 23.61610 | 4502 ft | 182 kts | 256° |
| 2026-05-04 19:35 | 46.76735 | 23.59716 | 4867 ft | 210 kts | 254° |
| 2026-05-04 19:35 | 46.76300 | 23.57569 | 5084 ft | 232 kts | 262° |
| 2026-05-04 19:36 | 46.76508 | 23.55215 | 5444 ft | 244 kts | 290° |
| 2026-05-04 19:36 | 46.77096 | 23.52844 | 5977 ft | 256 kts | 291° |
| 2026-05-04 19:36 | 46.77728 | 23.50333 | 6360 ft | 273 kts | 290° |
| 2026-05-04 19:36 | 46.78391 | 23.47661 | 7104 ft | 279 kts | 290° |
| 2026-05-04 19:37 | 46.79047 | 23.44967 | 7933 ft | 284 kts | 290° |
| 2026-05-04 19:37 | 46.79705 | 23.42225 | 8726 ft | 289 kts | 290° |
| 2026-05-04 19:37 | 46.80364 | 23.39436 | 9533 ft | 294 kts | 290° |
| 2026-05-04 19:37 | 46.81029 | 23.36587 | 10281 ft | 299 kts | 290° |
| 2026-05-04 19:38 | 46.81718 | 23.33624 | 10629 ft | 320 kts | 290° |
| 2026-05-04 19:38 | 46.82460 | 23.30416 | 10831 ft | 344 kts | 290° |
| 2026-05-04 19:38 | 46.83236 | 23.27036 | 11292 ft | 357 kts | 290° |
| 2026-05-04 19:38 | 46.84017 | 23.23614 | 12040 ft | 360 kts | 290° |
| 2026-05-04 19:39 | 46.84799 | 23.20175 | 12834 ft | 363 kts | 290° |
| 2026-05-04 19:39 | 46.85607 | 23.16619 | 13588 ft | 367 kts | 291° |
| 2026-05-04 19:39 | 46.86415 | 23.13059 | 14292 ft | 371 kts | 291° |
| 2026-05-04 19:39 | 46.87224 | 23.09482 | 14961 ft | 373 kts | 291° |
| 2026-05-04 19:40 | 46.88058 | 23.05866 | 15649 ft | 375 kts | 293° |
| 2026-05-04 19:40 | 46.89093 | 23.02357 | 16333 ft | 377 kts | 297° |
| 2026-05-04 19:40 | 46.90230 | 22.98889 | 17006 ft | 380 kts | 298° |
| 2026-05-04 19:40 | 46.91402 | 22.95411 | 17650 ft | 383 kts | 299° |
| 2026-05-04 19:41 | 46.92569 | 22.91951 | 18287 ft | 386 kts | 298° |
| 2026-05-04 19:41 | 46.93754 | 22.88406 | 18868 ft | 389 kts | 298° |
| 2026-05-04 19:41 | 46.94937 | 22.84835 | 19452 ft | 391 kts | 298° |
| 2026-05-04 19:41 | 46.96119 | 22.81235 | 20034 ft | 393 kts | 298° |
| 2026-05-04 19:42 | 46.97301 | 22.77609 | 20606 ft | 396 kts | 297° |
| 2026-05-04 19:42 | 46.98486 | 22.73961 | 21164 ft | 398 kts | 297° |
| 2026-05-04 19:42 | 46.99675 | 22.70285 | 21709 ft | 401 kts | 297° |
| 2026-05-04 19:42 | 47.00872 | 22.66579 | 22241 ft | 403 kts | 297° |
| 2026-05-04 19:43 | 47.02073 | 22.62852 | 22789 ft | 406 kts | 297° |
| 2026-05-04 19:43 | 47.03263 | 22.59153 | 23295 ft | 408 kts | 297° |
| 2026-05-04 19:43 | 47.04478 | 22.55372 | 23773 ft | 411 kts | 297° |
| 2026-05-04 19:43 | 47.05697 | 22.51573 | 24184 ft | 413 kts | 297° |
| 2026-05-04 19:44 | 47.06923 | 22.47741 | 24614 ft | 415 kts | 297° |
| 2026-05-04 19:44 | 47.08145 | 22.43921 | 25017 ft | 418 kts | 297° |
| 2026-05-04 19:44 | 47.09339 | 22.40185 | 25407 ft | 419 kts | 297° |
| 2026-05-04 19:44 | 47.10579 | 22.36300 | 25805 ft | 422 kts | 297° |
| 2026-05-04 19:45 | 47.11821 | 22.32399 | 26183 ft | 424 kts | 297° |
| 2026-05-04 19:45 | 47.13074 | 22.28460 | 26557 ft | 426 kts | 297° |
| 2026-05-04 19:45 | 47.14333 | 22.24492 | 26938 ft | 429 kts | 297° |
| 2026-05-04 19:45 | 47.15595 | 22.20513 | 27310 ft | 431 kts | 297° |
| 2026-05-04 19:46 | 47.16843 | 22.16568 | 27666 ft | 433 kts | 297° |
| 2026-05-04 19:46 | 47.18111 | 22.12555 | 28029 ft | 435 kts | 297° |
| 2026-05-04 19:46 | 47.19388 | 22.08509 | 28366 ft | 437 kts | 297° |
| 2026-05-04 19:46 | 47.20664 | 22.04459 | 28708 ft | 439 kts | 297° |
| 2026-05-04 19:47 | 47.21943 | 22.00390 | 29159 ft | 438 kts | 297° |
| 2026-05-04 19:47 | 47.23216 | 21.96333 | 29694 ft | 435 kts | 297° |
| 2026-05-04 19:47 | 47.24462 | 21.92355 | 30197 ft | 432 kts | 297° |
| 2026-05-04 19:47 | 47.25737 | 21.88279 | 30570 ft | 432 kts | 297° |
| 2026-05-04 19:48 | 47.26991 | 21.84265 | 30885 ft | 432 kts | 297° |
| 2026-05-04 19:48 | 47.28226 | 21.80306 | 31248 ft | 431 kts | 297° |
| 2026-05-04 19:48 | 47.29478 | 21.76289 | 31630 ft | 429 kts | 297° |
| 2026-05-04 19:48 | 47.30715 | 21.72310 | 32002 ft | 428 kts | 297° |
| 2026-05-04 19:49 | 47.31954 | 21.68320 | 32329 ft | 428 kts | 297° |
| 2026-05-04 19:49 | 47.33191 | 21.64331 | 32646 ft | 428 kts | 297° |
| 2026-05-04 19:49 | 47.34421 | 21.60357 | 32999 ft | 427 kts | 297° |
| 2026-05-04 19:49 | 47.35652 | 21.56374 | 33356 ft | 425 kts | 297° |
| 2026-05-04 19:50 | 47.36879 | 21.52398 | 33693 ft | 425 kts | 297° |
| 2026-05-04 19:50 | 47.38098 | 21.48439 | 34007 ft | 424 kts | 297° |
| 2026-05-04 19:50 | 47.39322 | 21.44462 | 34063 ft | 428 kts | 297° |
| 2026-05-04 19:51 | 47.41784 | 21.36439 | 34060 ft | 428 kts | 297° |
| 2026-05-04 19:51 | 47.44213 | 21.28493 | 34063 ft | 422 kts | 297° |
| 2026-05-04 19:52 | 47.46619 | 21.20602 | 34063 ft | 422 kts | 297° |
| 2026-05-04 19:52 | 47.49014 | 21.12724 | 34065 ft | 423 kts | 296° |
| 2026-05-04 19:53 | 47.51420 | 21.04783 | 34056 ft | 424 kts | 296° |
| 2026-05-04 19:53 | 47.53795 | 20.96919 | 34060 ft | 425 kts | 296° |
| 2026-05-04 19:54 | 47.56201 | 20.88927 | 34061 ft | 425 kts | 296° |
| 2026-05-04 19:54 | 47.58605 | 20.80915 | 34047 ft | 426 kts | 296° |
| 2026-05-04 19:55 | 47.61009 | 20.72877 | 34052 ft | 427 kts | 296° |
| 2026-05-04 19:55 | 47.63396 | 20.64869 | 34052 ft | 427 kts | 295° |
| 2026-05-04 19:56 | 47.65792 | 20.56806 | 34048 ft | 428 kts | 295° |
| 2026-05-04 19:56 | 47.68183 | 20.48731 | 34044 ft | 427 kts | 295° |
| 2026-05-04 19:57 | 47.70561 | 20.40678 | 34045 ft | 427 kts | 295° |
| 2026-05-04 19:57 | 47.72940 | 20.32591 | 34050 ft | 426 kts | 295° |
| 2026-05-04 19:58 | 47.75288 | 20.24585 | 34052 ft | 425 kts | 294° |
| 2026-05-04 19:58 | 47.77640 | 20.16536 | 34051 ft | 424 kts | 294° |
| 2026-05-04 19:59 | 47.79984 | 20.08492 | 34051 ft | 423 kts | 294° |
| 2026-05-04 19:59 | 47.82317 | 20.00458 | 34049 ft | 422 kts | 294° |
| 2026-05-04 20:00 | 47.84638 | 19.92440 | 34052 ft | 421 kts | 294° |
| 2026-05-04 20:00 | 47.86928 | 19.84499 | 34048 ft | 420 kts | 294° |
| 2026-05-04 20:01 | 47.89243 | 19.76448 | 34052 ft | 419 kts | 294° |
| 2026-05-04 20:01 | 47.91517 | 19.68513 | 34050 ft | 419 kts | 294° |
| 2026-05-04 20:02 | 47.93796 | 19.60533 | 34042 ft | 418 kts | 294° |
| 2026-05-04 20:02 | 47.96184 | 19.52636 | 34037 ft | 417 kts | 302° |
| 2026-05-04 20:03 | 47.99512 | 19.45575 | 34046 ft | 416 kts | 306° |
| 2026-05-04 20:03 | 48.02944 | 19.38601 | 34041 ft | 416 kts | 306° |
| 2026-05-04 20:04 | 48.06304 | 19.31688 | 34042 ft | 417 kts | 306° |
| 2026-05-04 20:04 | 48.09685 | 19.24651 | 34039 ft | 417 kts | 306° |
| 2026-05-04 20:05 | 48.12865 | 19.17990 | 34048 ft | 417 kts | 306° |
| 2026-05-04 20:05 | 48.16237 | 19.10903 | 34039 ft | 417 kts | 306° |
| 2026-05-04 20:06 | 48.19600 | 19.03819 | 34048 ft | 417 kts | 306° |
| 2026-05-04 20:06 | 48.22942 | 18.96760 | 34044 ft | 418 kts | 306° |
| 2026-05-04 20:07 | 48.26298 | 18.89657 | 34038 ft | 418 kts | 306° |
| 2026-05-04 20:07 | 48.29653 | 18.82535 | 34038 ft | 417 kts | 306° |
| 2026-05-04 20:08 | 48.32981 | 18.75450 | 34042 ft | 417 kts | 306° |
| 2026-05-04 20:08 | 48.36332 | 18.68301 | 34033 ft | 417 kts | 306° |
| 2026-05-04 20:09 | 48.39639 | 18.61225 | 34042 ft | 416 kts | 305° |
| 2026-05-04 20:09 | 48.42969 | 18.54081 | 34027 ft | 416 kts | 306° |
| 2026-05-04 20:10 | 48.46291 | 18.46936 | 34031 ft | 416 kts | 305° |
| 2026-05-04 20:10 | 48.49598 | 18.39805 | 34025 ft | 415 kts | 305° |
| 2026-05-04 20:11 | 48.52896 | 18.32675 | 34028 ft | 414 kts | 305° |
| 2026-05-04 20:11 | 48.56163 | 18.25590 | 34011 ft | 414 kts | 305° |
| 2026-05-04 20:12 | 48.59451 | 18.18445 | 34002 ft | 413 kts | 305° |
| 2026-05-04 20:12 | 48.62722 | 18.11315 | 34002 ft | 413 kts | 305° |
| 2026-05-04 20:13 | 48.65986 | 18.04182 | 33999 ft | 413 kts | 305° |
| 2026-05-04 20:13 | 48.69228 | 17.97080 | 33999 ft | 413 kts | 304° |
| 2026-05-04 20:14 | 48.72488 | 17.89919 | 33997 ft | 413 kts | 304° |
| 2026-05-04 20:14 | 48.75741 | 17.82754 | 33996 ft | 413 kts | 304° |
| 2026-05-04 20:15 | 48.78996 | 17.75565 | 34002 ft | 414 kts | 304° |
| 2026-05-04 20:15 | 48.82247 | 17.68366 | 33989 ft | 414 kts | 304° |
| 2026-05-04 20:16 | 48.85477 | 17.61194 | 33990 ft | 414 kts | 304° |
| 2026-05-04 20:16 | 48.88718 | 17.53978 | 33981 ft | 415 kts | 304° |
| 2026-05-04 20:17 | 48.91961 | 17.46739 | 33980 ft | 415 kts | 303° |
| 2026-05-04 20:17 | 48.95204 | 17.39478 | 33980 ft | 415 kts | 303° |
| 2026-05-04 20:18 | 48.98435 | 17.32229 | 33976 ft | 414 kts | 303° |
| 2026-05-04 20:18 | 49.01625 | 17.24986 | 33970 ft | 414 kts | 300° |
| 2026-05-04 20:19 | 49.04030 | 17.16925 | 34115 ft | 422 kts | 291° |
| 2026-05-04 20:19 | 49.05109 | 17.12759 | 34330 ft | 422 kts | 291° |
| 2026-05-04 20:19 | 49.06182 | 17.08599 | 34639 ft | 421 kts | 291° |
| 2026-05-04 20:19 | 49.07253 | 17.04464 | 34942 ft | 419 kts | 291° |
| 2026-05-04 20:20 | 49.08313 | 17.00387 | 35171 ft | 419 kts | 291° |
| 2026-05-04 20:20 | 49.09394 | 16.96244 | 35384 ft | 420 kts | 291° |
| 2026-05-04 20:20 | 49.10473 | 16.92118 | 35635 ft | 419 kts | 291° |
| 2026-05-04 20:20 | 49.11556 | 16.87979 | 35912 ft | 418 kts | 291° |
| 2026-05-04 20:21 | 49.12635 | 16.83850 | 35952 ft | 421 kts | 291° |
| 2026-05-04 20:21 | 49.15883 | 16.71389 | 35957 ft | 419 kts | 291° |
| 2026-05-04 20:22 | 49.17659 | 16.64547 | 35971 ft | 416 kts | 291° |
| 2026-05-04 20:22 | 49.20123 | 16.55018 | 35970 ft | 415 kts | 290° |
| 2026-05-04 20:23 | 49.22231 | 16.46834 | 35969 ft | 414 kts | 290° |
| 2026-05-04 20:23 | 49.24304 | 16.38757 | 35965 ft | 414 kts | 290° |
| 2026-05-04 20:24 | 49.26074 | 16.31836 | 35966 ft | 414 kts | 290° |
| 2026-05-04 20:24 | 49.28512 | 16.22270 | 35968 ft | 416 kts | 290° |
| 2026-05-04 20:25 | 49.30267 | 16.15358 | 35964 ft | 417 kts | 290° |
| 2026-05-04 20:25 | 49.32674 | 16.05843 | 35970 ft | 418 kts | 290° |
| 2026-05-04 20:26 | 49.34417 | 15.98928 | 35961 ft | 419 kts | 290° |
| 2026-05-04 20:26 | 49.36503 | 15.90627 | 35958 ft | 420 kts | 290° |
| 2026-05-04 20:27 | 49.38598 | 15.82257 | 35951 ft | 420 kts | 289° |
| 2026-05-04 20:27 | 49.40687 | 15.73880 | 35948 ft | 421 kts | 289° |
| 2026-05-04 20:28 | 49.42774 | 15.65476 | 35935 ft | 421 kts | 289° |
| 2026-05-04 20:28 | 49.44840 | 15.57130 | 35943 ft | 421 kts | 289° |
| 2026-05-04 20:29 | 49.46908 | 15.48746 | 35937 ft | 420 kts | 289° |
| 2026-05-04 20:29 | 49.48975 | 15.40330 | 35932 ft | 420 kts | 289° |
| 2026-05-04 20:30 | 49.51024 | 15.31956 | 35932 ft | 420 kts | 289° |
| 2026-05-04 20:30 | 49.53052 | 15.23641 | 35928 ft | 419 kts | 289° |
| 2026-05-04 20:31 | 49.55095 | 15.15226 | 35926 ft | 419 kts | 289° |
| 2026-05-04 20:31 | 49.57132 | 15.06808 | 35933 ft | 418 kts | 288° |
| 2026-05-04 20:32 | 49.59155 | 14.98411 | 35935 ft | 417 kts | 288° |
| 2026-05-04 20:32 | 49.61156 | 14.90080 | 35931 ft | 417 kts | 288° |
| 2026-05-04 20:33 | 49.63162 | 14.81692 | 35934 ft | 417 kts | 288° |
| 2026-05-04 20:33 | 49.65161 | 14.73303 | 35932 ft | 417 kts | 288° |
| 2026-05-04 20:34 | 49.67153 | 14.64908 | 35936 ft | 416 kts | 288° |
| 2026-05-04 20:34 | 49.69138 | 14.56512 | 35937 ft | 416 kts | 288° |
| 2026-05-04 20:35 | 49.71111 | 14.48133 | 35935 ft | 416 kts | 288° |
| 2026-05-04 20:35 | 49.73063 | 14.39811 | 35935 ft | 416 kts | 287° |
| 2026-05-04 20:36 | 49.75033 | 14.31382 | 35946 ft | 416 kts | 287° |
| 2026-05-04 20:36 | 49.76990 | 14.22973 | 35950 ft | 416 kts | 287° |
| 2026-05-04 20:37 | 49.78947 | 14.14533 | 35959 ft | 416 kts | 287° |
| 2026-05-04 20:37 | 49.80870 | 14.06206 | 35950 ft | 417 kts | 287° |
| 2026-05-04 20:38 | 49.82820 | 13.97732 | 35947 ft | 417 kts | 287° |
| 2026-05-04 20:38 | 49.84774 | 13.89202 | 35952 ft | 418 kts | 287° |
| 2026-05-04 20:39 | 49.86698 | 13.80772 | 35957 ft | 418 kts | 287° |
| 2026-05-04 20:39 | 49.88633 | 13.72259 | 35950 ft | 419 kts | 287° |
| 2026-05-04 20:40 | 49.90562 | 13.63736 | 35957 ft | 419 kts | 287° |
| 2026-05-04 20:40 | 49.92476 | 13.55250 | 35942 ft | 420 kts | 286° |
| 2026-05-04 20:41 | 49.94407 | 13.46652 | 35962 ft | 420 kts | 286° |
| 2026-05-04 20:41 | 49.96323 | 13.38084 | 35963 ft | 420 kts | 286° |
| 2026-05-04 20:42 | 49.98217 | 13.29581 | 35952 ft | 420 kts | 286° |
| 2026-05-04 20:42 | 50.00120 | 13.21004 | 35963 ft | 420 kts | 286° |
| 2026-05-04 20:43 | 50.01958 | 13.12684 | 35961 ft | 420 kts | 286° |
| 2026-05-04 20:43 | 50.03861 | 13.04033 | 35964 ft | 419 kts | 285° |
| 2026-05-04 20:44 | 50.05731 | 12.95499 | 35964 ft | 420 kts | 285° |
| 2026-05-04 20:44 | 50.07605 | 12.86911 | 35970 ft | 419 kts | 285° |
| 2026-05-04 20:45 | 50.09476 | 12.78302 | 35964 ft | 419 kts | 285° |
| 2026-05-04 20:45 | 50.11338 | 12.69697 | 35968 ft | 419 kts | 285° |
| 2026-05-04 20:46 | 50.13183 | 12.61134 | 35961 ft | 419 kts | 285° |
| 2026-05-04 20:46 | 50.15033 | 12.52511 | 35965 ft | 419 kts | 285° |
| 2026-05-04 20:47 | 50.16868 | 12.43925 | 35957 ft | 420 kts | 285° |
| 2026-05-04 20:47 | 50.18715 | 12.35251 | 35959 ft | 420 kts | 285° |
| 2026-05-04 20:48 | 50.20521 | 12.26694 | 35971 ft | 420 kts | 285° |
| 2026-05-04 20:48 | 50.22323 | 12.18085 | 35983 ft | 420 kts | 285° |
| 2026-05-04 20:49 | 50.24128 | 12.09422 | 35981 ft | 420 kts | 284° |
| 2026-05-04 20:49 | 50.25935 | 12.00724 | 36002 ft | 420 kts | 284° |
| 2026-05-04 20:50 | 50.27734 | 11.92026 | 36000 ft | 421 kts | 284° |
| 2026-05-04 20:50 | 50.29529 | 11.83307 | 35997 ft | 421 kts | 284° |
| 2026-05-04 20:51 | 50.31305 | 11.74645 | 35992 ft | 421 kts | 284° |
| 2026-05-04 20:51 | 50.33079 | 11.65953 | 35996 ft | 420 kts | 284° |
| 2026-05-04 20:52 | 50.34840 | 11.57287 | 35992 ft | 420 kts | 284° |
| 2026-05-04 20:52 | 50.36607 | 11.48555 | 35984 ft | 420 kts | 284° |
| 2026-05-04 20:53 | 50.38359 | 11.39860 | 35976 ft | 419 kts | 284° |
| 2026-05-04 20:53 | 50.40108 | 11.31143 | 35968 ft | 419 kts | 284° |
| 2026-05-04 20:54 | 50.41846 | 11.22437 | 35960 ft | 418 kts | 283° |
| 2026-05-04 20:54 | 50.43562 | 11.13801 | 35967 ft | 417 kts | 283° |
| 2026-05-04 20:55 | 50.45271 | 11.05166 | 35954 ft | 416 kts | 283° |
| 2026-05-04 20:55 | 50.46988 | 10.96448 | 35966 ft | 416 kts | 283° |
| 2026-05-04 20:56 | 50.48667 | 10.87888 | 35958 ft | 416 kts | 283° |
| 2026-05-04 20:56 | 50.50372 | 10.79154 | 35959 ft | 416 kts | 283° |
| 2026-05-04 20:57 | 50.52053 | 10.70505 | 35957 ft | 416 kts | 283° |
| 2026-05-04 20:57 | 50.53735 | 10.61808 | 35968 ft | 416 kts | 283° |
| 2026-05-04 20:58 | 50.55416 | 10.53081 | 35972 ft | 417 kts | 283° |
| 2026-05-04 20:58 | 50.57091 | 10.44341 | 35961 ft | 418 kts | 283° |
| 2026-05-04 20:59 | 50.58753 | 10.35631 | 35956 ft | 419 kts | 282° |
| 2026-05-04 20:59 | 50.60425 | 10.26830 | 35957 ft | 420 kts | 282° |
| 2026-05-04 21:00 | 50.62091 | 10.18017 | 35964 ft | 420 kts | 282° |
| 2026-05-04 21:00 | 50.63735 | 10.09280 | 35981 ft | 420 kts | 282° |
| 2026-05-04 21:01 | 50.65392 | 10.00428 | 35977 ft | 420 kts | 282° |
| 2026-05-04 21:01 | 50.67026 | 9.91664 | 35977 ft | 420 kts | 282° |
| 2026-05-04 21:02 | 50.68663 | 9.82839 | 35977 ft | 420 kts | 282° |
| 2026-05-04 21:02 | 50.70309 | 9.73925 | 35982 ft | 421 kts | 282° |
| 2026-05-04 21:03 | 50.71941 | 9.65045 | 35974 ft | 421 kts | 282° |
| 2026-05-04 21:03 | 50.73630 | 9.56277 | 35989 ft | 422 kts | 284° |
| 2026-05-04 21:04 | 50.75630 | 9.47541 | 35998 ft | 422 kts | 285° |
| 2026-05-04 21:04 | 50.77668 | 9.38836 | 35991 ft | 422 kts | 285° |
| 2026-05-04 21:05 | 50.79648 | 9.30223 | 35995 ft | 421 kts | 285° |
| 2026-05-04 21:05 | 50.81615 | 9.21551 | 35989 ft | 421 kts | 285° |
| 2026-05-04 21:06 | 50.83591 | 9.12775 | 35989 ft | 420 kts | 285° |
| 2026-05-04 21:06 | 50.85541 | 9.04077 | 35993 ft | 419 kts | 285° |
| 2026-05-04 21:07 | 50.87482 | 8.95387 | 35993 ft | 419 kts | 284° |
| 2026-05-04 21:07 | 50.89404 | 8.86747 | 35996 ft | 419 kts | 284° |
| 2026-05-04 21:08 | 50.91336 | 8.78026 | 35991 ft | 419 kts | 284° |
| 2026-05-04 21:08 | 50.93257 | 8.69317 | 35994 ft | 419 kts | 284° |
| 2026-05-04 21:09 | 50.95174 | 8.60588 | 35991 ft | 419 kts | 284° |
| 2026-05-04 21:09 | 50.97072 | 8.51915 | 35998 ft | 419 kts | 284° |
| 2026-05-04 21:10 | 50.98959 | 8.43252 | 35998 ft | 419 kts | 284° |
| 2026-05-04 21:10 | 51.00852 | 8.34530 | 36001 ft | 419 kts | 284° |
| 2026-05-04 21:11 | 51.02734 | 8.25758 | 36005 ft | 419 kts | 283° |
| 2026-05-04 21:11 | 51.04576 | 8.16970 | 35998 ft | 419 kts | 283° |
| 2026-05-04 21:12 | 51.06398 | 8.08221 | 35997 ft | 419 kts | 283° |
| 2026-05-04 21:12 | 51.08188 | 7.99609 | 35999 ft | 419 kts | 283° |
| 2026-05-04 21:13 | 51.09956 | 7.91073 | 36002 ft | 419 kts | 283° |
| 2026-05-04 21:13 | 51.11763 | 7.82313 | 35998 ft | 420 kts | 283° |
| 2026-05-04 21:14 | 51.13573 | 7.73500 | 35996 ft | 420 kts | 283° |
| 2026-05-04 21:14 | 51.15376 | 7.64687 | 35992 ft | 421 kts | 283° |
| 2026-05-04 21:15 | 51.17186 | 7.55796 | 35988 ft | 422 kts | 283° |
| 2026-05-04 21:15 | 51.18986 | 7.46914 | 35994 ft | 422 kts | 283° |
| 2026-05-04 21:16 | 51.20786 | 7.37991 | 35987 ft | 422 kts | 283° |
| 2026-05-04 21:16 | 51.22567 | 7.29125 | 35980 ft | 423 kts | 283° |
| 2026-05-04 21:17 | 51.24354 | 7.20190 | 35975 ft | 423 kts | 283° |
| 2026-05-04 21:17 | 51.26125 | 7.11290 | 35969 ft | 423 kts | 283° |
| 2026-05-04 21:18 | 51.27873 | 7.02470 | 35972 ft | 423 kts | 283° |
| 2026-05-04 21:18 | 51.29643 | 6.93494 | 35972 ft | 423 kts | 283° |
| 2026-05-04 21:19 | 51.31389 | 6.84598 | 35968 ft | 423 kts | 283° |
| 2026-05-04 21:19 | 51.33143 | 6.75619 | 35970 ft | 423 kts | 283° |
| 2026-05-04 21:20 | 51.34885 | 6.66664 | 35971 ft | 422 kts | 283° |
| 2026-05-04 21:20 | 51.36626 | 6.57665 | 35969 ft | 422 kts | 283° |
| 2026-05-04 21:21 | 51.38343 | 6.48752 | 35959 ft | 422 kts | 283° |
| 2026-05-04 21:21 | 51.40060 | 6.39801 | 35972 ft | 422 kts | 282° |
| 2026-05-04 21:22 | 51.41781 | 6.30783 | 35975 ft | 422 kts | 282° |
| 2026-05-04 21:22 | 51.43488 | 6.21789 | 35985 ft | 423 kts | 282° |
| 2026-05-04 21:23 | 51.45199 | 6.12734 | 35959 ft | 424 kts | 283° |
| 2026-05-04 21:23 | 51.46890 | 6.03747 | 35964 ft | 424 kts | 282° |
| 2026-05-04 21:24 | 51.48588 | 5.94682 | 35967 ft | 424 kts | 282° |
| 2026-05-04 21:24 | 51.50277 | 5.85610 | 35963 ft | 424 kts | 282° |
| 2026-05-04 21:25 | 51.51958 | 5.76544 | 35969 ft | 424 kts | 282° |
| 2026-05-04 21:25 | 51.53635 | 5.67451 | 35967 ft | 425 kts | 282° |
| 2026-05-04 21:26 | 51.55295 | 5.58408 | 35969 ft | 425 kts | 282° |
| 2026-05-04 21:26 | 51.56960 | 5.49293 | 35968 ft | 425 kts | 282° |
| 2026-05-04 21:27 | 51.58620 | 5.40159 | 35967 ft | 426 kts | 283° |
| 2026-05-04 21:27 | 51.60274 | 5.31012 | 35973 ft | 427 kts | 283° |
| 2026-05-04 21:28 | 51.61914 | 5.21901 | 35964 ft | 427 kts | 283° |
| 2026-05-04 21:28 | 51.63561 | 5.12702 | 35965 ft | 427 kts | 283° |
| 2026-05-04 21:29 | 51.65198 | 5.03509 | 35963 ft | 428 kts | 283° |
| 2026-05-04 21:29 | 51.66830 | 4.94301 | 35966 ft | 428 kts | 283° |
| 2026-05-04 21:30 | 51.68444 | 4.85148 | 35968 ft | 428 kts | 283° |
| 2026-05-04 21:30 | 51.70062 | 4.75924 | 35971 ft | 428 kts | 283° |
| 2026-05-04 21:31 | 51.72472 | 4.62091 | 35980 ft | 427 kts | 283° |
| 2026-05-04 21:32 | 51.74073 | 4.52848 | 35984 ft | 427 kts | 283° |
| 2026-05-04 21:32 | 51.75660 | 4.43629 | 35987 ft | 427 kts | 283° |
| 2026-05-04 21:33 | 51.77230 | 4.34466 | 35987 ft | 427 kts | 283° |
| 2026-05-04 21:33 | 51.78808 | 4.25210 | 35990 ft | 427 kts | 283° |
| 2026-05-04 21:34 | 51.80371 | 4.15986 | 35990 ft | 426 kts | 283° |
| 2026-05-04 21:34 | 51.81932 | 4.06728 | 35991 ft | 426 kts | 283° |
| 2026-05-04 21:35 | 51.83447 | 3.97713 | 35730 ft | 409 kts | 283° |
| 2026-05-04 21:35 | 51.84185 | 3.93300 | 35371 ft | 405 kts | 283° |
| 2026-05-04 21:35 | 51.84918 | 3.88901 | 34947 ft | 404 kts | 283° |
| 2026-05-04 21:35 | 51.85641 | 3.84547 | 34625 ft | 399 kts | 283° |
| 2026-05-04 21:36 | 51.86353 | 3.80255 | 34394 ft | 391 kts | 283° |
| 2026-05-04 21:36 | 51.87053 | 3.76021 | 33985 ft | 389 kts | 282° |
| 2026-05-04 21:36 | 51.87752 | 3.71781 | 33399 ft | 391 kts | 282° |
| 2026-05-04 21:36 | 51.88452 | 3.67521 | 32860 ft | 391 kts | 282° |
| 2026-05-04 21:37 | 51.89137 | 3.63345 | 32444 ft | 389 kts | 282° |
| 2026-05-04 21:37 | 51.89830 | 3.59114 | 32063 ft | 386 kts | 282° |
| 2026-05-04 21:37 | 51.90515 | 3.54921 | 31653 ft | 384 kts | 282° |
| 2026-05-04 21:37 | 51.91194 | 3.50759 | 31234 ft | 383 kts | 282° |
| 2026-05-04 21:38 | 51.91873 | 3.46580 | 30815 ft | 382 kts | 282° |
| 2026-05-04 21:38 | 51.92544 | 3.42439 | 30419 ft | 381 kts | 282° |
| 2026-05-04 21:38 | 51.93215 | 3.38293 | 30025 ft | 379 kts | 281° |
| 2026-05-04 21:38 | 51.93878 | 3.34182 | 29619 ft | 376 kts | 281° |
| 2026-05-04 21:39 | 51.94529 | 3.30141 | 29225 ft | 373 kts | 281° |
| 2026-05-04 21:39 | 51.95180 | 3.26094 | 28822 ft | 370 kts | 281° |
| 2026-05-04 21:39 | 51.95824 | 3.22073 | 28440 ft | 367 kts | 282° |
| 2026-05-04 21:39 | 51.96346 | 3.18051 | 28049 ft | 362 kts | 274° |
| 2026-05-04 21:40 | 51.96445 | 3.14013 | 27656 ft | 356 kts | 264° |
| 2026-05-04 21:40 | 51.96210 | 3.10043 | 27284 ft | 353 kts | 262° |
| 2026-05-04 21:40 | 51.95931 | 3.06107 | 26911 ft | 350 kts | 262° |
| 2026-05-04 21:40 | 51.95647 | 3.02204 | 26523 ft | 348 kts | 262° |
| 2026-05-04 21:41 | 51.95369 | 2.98316 | 26172 ft | 345 kts | 262° |
| 2026-05-04 21:41 | 51.95101 | 2.94464 | 25791 ft | 344 kts | 262° |
| 2026-05-04 21:41 | 51.94837 | 2.90624 | 25439 ft | 341 kts | 263° |
| 2026-05-04 21:41 | 51.94577 | 2.86807 | 25064 ft | 340 kts | 263° |
| 2026-05-04 21:42 | 51.94323 | 2.83071 | 24731 ft | 338 kts | 263° |
| 2026-05-04 21:42 | 51.94066 | 2.79297 | 24389 ft | 336 kts | 263° |
| 2026-05-04 21:42 | 51.93810 | 2.75536 | 23996 ft | 336 kts | 263° |
| 2026-05-04 21:42 | 51.93552 | 2.71786 | 23682 ft | 333 kts | 263° |
| 2026-05-04 21:43 | 51.93295 | 2.68072 | 23307 ft | 331 kts | 263° |
| 2026-05-04 21:43 | 51.93039 | 2.64374 | 22889 ft | 330 kts | 263° |
| 2026-05-04 21:43 | 51.92786 | 2.60684 | 22534 ft | 327 kts | 263° |
| 2026-05-04 21:43 | 51.92535 | 2.57039 | 22173 ft | 326 kts | 263° |
| 2026-05-04 21:44 | 51.92289 | 2.53465 | 22042 ft | 317 kts | 263° |
| 2026-05-04 21:44 | 51.92047 | 2.49974 | 22020 ft | 307 kts | 263° |
| 2026-05-04 21:44 | 51.91810 | 2.46565 | 22025 ft | 306 kts | 263° |
| 2026-05-04 21:44 | 51.91565 | 2.43051 | 22055 ft | 323 kts | 263° |
| 2026-05-04 21:45 | 51.91305 | 2.39339 | 22051 ft | 338 kts | 263° |
| 2026-05-04 21:45 | 51.91037 | 2.35557 | 22036 ft | 337 kts | 263° |
| 2026-05-04 21:45 | 51.90780 | 2.31841 | 22016 ft | 328 kts | 264° |
| 2026-05-04 21:45 | 51.90637 | 2.28190 | 21822 ft | 324 kts | 267° |
| 2026-05-04 21:46 | 51.90564 | 2.24535 | 21335 ft | 326 kts | 268° |
| 2026-05-04 21:46 | 51.90506 | 2.20921 | 21028 ft | 323 kts | 268° |
| 2026-05-04 21:46 | 51.90442 | 2.17304 | 20714 ft | 320 kts | 267° |
| 2026-05-04 21:46 | 51.90371 | 2.13714 | 20394 ft | 318 kts | 267° |
| 2026-05-04 21:47 | 51.90294 | 2.10126 | 19989 ft | 319 kts | 267° |
| 2026-05-04 21:47 | 51.90212 | 2.06561 | 19681 ft | 316 kts | 267° |
| 2026-05-04 21:47 | 51.90128 | 2.03014 | 19364 ft | 314 kts | 267° |
| 2026-05-04 21:47 | 51.90043 | 1.99470 | 19013 ft | 314 kts | 266° |
| 2026-05-04 21:48 | 51.89957 | 1.95963 | 18720 ft | 311 kts | 266° |
| 2026-05-04 21:48 | 51.89869 | 1.92464 | 18378 ft | 311 kts | 266° |
| 2026-05-04 21:48 | 51.89918 | 1.89022 | 18053 ft | 310 kts | 279° |
| 2026-05-04 21:48 | 51.90611 | 1.85789 | 18052 ft | 302 kts | 294° |
| 2026-05-04 21:49 | 51.91575 | 1.82803 | 18040 ft | 298 kts | 296° |
| 2026-05-04 21:49 | 51.92584 | 1.79814 | 18058 ft | 310 kts | 297° |
| 2026-05-04 21:49 | 51.93638 | 1.76698 | 18044 ft | 316 kts | 297° |
| 2026-05-04 21:49 | 51.94680 | 1.73604 | 17896 ft | 311 kts | 297° |
| 2026-05-04 21:50 | 51.95700 | 1.70554 | 17753 ft | 304 kts | 296° |
| 2026-05-04 21:50 | 51.96697 | 1.67553 | 17415 ft | 302 kts | 297° |
| 2026-05-04 21:50 | 51.97680 | 1.64576 | 17014 ft | 303 kts | 296° |
| 2026-05-04 21:50 | 51.98666 | 1.61581 | 16740 ft | 300 kts | 296° |
| 2026-05-04 21:51 | 51.99644 | 1.58600 | 16373 ft | 300 kts | 296° |
| 2026-05-04 21:51 | 52.00623 | 1.55612 | 16094 ft | 297 kts | 296° |
| 2026-05-04 21:51 | 52.01592 | 1.52652 | 15763 ft | 297 kts | 296° |
| 2026-05-04 21:51 | 52.02556 | 1.49699 | 15465 ft | 295 kts | 297° |
| 2026-05-04 21:52 | 52.03515 | 1.46760 | 15152 ft | 294 kts | 297° |
| 2026-05-04 21:52 | 52.04467 | 1.43838 | 14839 ft | 293 kts | 297° |
| 2026-05-04 21:52 | 52.05407 | 1.40951 | 14576 ft | 291 kts | 297° |
| 2026-05-04 21:52 | 52.06350 | 1.38052 | 14294 ft | 289 kts | 297° |
| 2026-05-04 21:53 | 52.07286 | 1.35168 | 13988 ft | 289 kts | 297° |
| 2026-05-04 21:53 | 52.08220 | 1.32293 | 13716 ft | 287 kts | 297° |
| 2026-05-04 21:53 | 52.09147 | 1.29432 | 13378 ft | 287 kts | 297° |
| 2026-05-04 21:53 | 52.10075 | 1.26563 | 13082 ft | 285 kts | 297° |
| 2026-05-04 21:54 | 52.10993 | 1.23723 | 12774 ft | 283 kts | 296° |
| 2026-05-04 21:54 | 52.11559 | 1.20679 | 12426 ft | 282 kts | 273° |
| 2026-05-04 21:54 | 52.11356 | 1.17536 | 12153 ft | 279 kts | 256° |
| 2026-05-04 21:54 | 52.10876 | 1.14552 | 11939 ft | 275 kts | 255° |
| 2026-05-04 21:55 | 52.10366 | 1.11582 | 11711 ft | 271 kts | 255° |
| 2026-05-04 21:55 | 52.09857 | 1.08634 | 11428 ft | 270 kts | 255° |
| 2026-05-04 21:55 | 52.09353 | 1.05700 | 11148 ft | 269 kts | 255° |
| 2026-05-04 21:55 | 52.08852 | 1.02761 | 10865 ft | 268 kts | 255° |
| 2026-05-04 21:56 | 52.08361 | 0.99857 | 10600 ft | 267 kts | 255° |
| 2026-05-04 21:56 | 52.07870 | 0.96946 | 10329 ft | 266 kts | 255° |
| 2026-05-04 21:56 | 52.07388 | 0.94086 | 10071 ft | 265 kts | 255° |
| 2026-05-04 21:56 | 52.06899 | 0.91181 | 9795 ft | 264 kts | 255° |
| 2026-05-04 21:57 | 52.06415 | 0.88310 | 9516 ft | 262 kts | 255° |
| 2026-05-04 21:57 | 52.05940 | 0.85490 | 9232 ft | 261 kts | 255° |
| 2026-05-04 21:57 | 52.05461 | 0.82651 | 8939 ft | 261 kts | 255° |
| 2026-05-04 21:57 | 52.04986 | 0.79839 | 8706 ft | 257 kts | 255° |
| 2026-05-04 21:58 | 52.04519 | 0.77074 | 8638 ft | 248 kts | 255° |
| 2026-05-04 21:58 | 52.04067 | 0.74403 | 8472 ft | 243 kts | 255° |
| 2026-05-04 21:58 | 52.03621 | 0.71772 | 8236 ft | 241 kts | 255° |
| 2026-05-04 21:58 | 52.03178 | 0.69157 | 8109 ft | 240 kts | 255° |
| 2026-05-04 21:59 | 52.02735 | 0.66552 | 8115 ft | 238 kts | 255° |
| 2026-05-04 21:59 | 52.02294 | 0.63968 | 8121 ft | 239 kts | 255° |
| 2026-05-04 21:59 | 52.01852 | 0.61375 | 8126 ft | 243 kts | 255° |
| 2026-05-04 21:59 | 52.01480 | 0.58703 | 8107 ft | 242 kts | 264° |
| 2026-05-04 22:00 | 52.01337 | 0.55994 | 8040 ft | 240 kts | 267° |
| 2026-05-04 22:00 | 52.01241 | 0.53323 | 7866 ft | 237 kts | 267° |
| 2026-05-04 22:00 | 52.01142 | 0.50623 | 7554 ft | 240 kts | 267° |
| 2026-05-04 22:00 | 52.01037 | 0.47939 | 7302 ft | 238 kts | 267° |
| 2026-05-04 22:01 | 52.00925 | 0.45253 | 7060 ft | 237 kts | 267° |
| 2026-05-04 22:01 | 52.00809 | 0.42590 | 6822 ft | 237 kts | 267° |
| 2026-05-04 22:01 | 52.00690 | 0.39929 | 6574 ft | 236 kts | 267° |
| 2026-05-04 22:01 | 52.00571 | 0.37323 | 6355 ft | 235 kts | 267° |
| 2026-05-04 22:02 | 52.00448 | 0.34707 | 6097 ft | 234 kts | 267° |
| 2026-05-04 22:02 | 52.00323 | 0.32051 | 6038 ft | 235 kts | 266° |
| 2026-05-04 22:02 | 52.00195 | 0.29390 | 6001 ft | 237 kts | 265° |
| 2026-05-04 22:02 | 51.99662 | 0.26887 | 5995 ft | 237 kts | 236° |
| 2026-05-04 22:03 | 51.98560 | 0.24901 | 5997 ft | 237 kts | 226° |
| 2026-05-04 22:03 | 51.97359 | 0.23064 | 6004 ft | 238 kts | 225° |
| 2026-05-04 22:03 | 51.96143 | 0.21246 | 5990 ft | 237 kts | 225° |
| 2026-05-04 22:03 | 51.94955 | 0.19439 | 5926 ft | 231 kts | 225° |
| 2026-05-04 22:04 | 51.93803 | 0.17672 | 5683 ft | 231 kts | 225° |
| 2026-05-04 22:04 | 51.92646 | 0.15890 | 5437 ft | 230 kts | 225° |
| 2026-05-04 22:04 | 51.91484 | 0.14094 | 5198 ft | 230 kts | 225° |
| 2026-05-04 22:04 | 51.90329 | 0.12308 | 4961 ft | 229 kts | 225° |
| 2026-05-04 22:05 | 51.89181 | 0.10533 | 4726 ft | 228 kts | 225° |
| 2026-05-04 22:05 | 51.88034 | 0.08761 | 4475 ft | 228 kts | 225° |
| 2026-05-04 22:05 | 51.86888 | 0.06989 | 4214 ft | 228 kts | 225° |
| 2026-05-04 22:05 | 51.85736 | 0.05223 | 3980 ft | 228 kts | 224° |
| 2026-05-04 22:06 | 51.84557 | 0.03510 | 3729 ft | 227 kts | 223° |
| 2026-05-04 22:06 | 51.83378 | 0.01818 | 3449 ft | 228 kts | 223° |
| 2026-05-04 22:06 | 51.82186 | 0.00106 | 3172 ft | 229 kts | 223° |
| 2026-05-04 22:06 | 51.81011 | -0.01575 | 3032 ft | 228 kts | 220° |
| 2026-05-04 22:07 | 51.79616 | -0.02644 | 3004 ft | 218 kts | 186° |
| 2026-05-04 22:07 | 51.78188 | -0.02373 | 3001 ft | 201 kts | 158° |
| 2026-05-04 22:07 | 51.77048 | -0.01249 | 2986 ft | 184 kts | 135° |
| 2026-05-04 22:07 | 51.76358 | 0.00421 | 3009 ft | 178 kts | 107° |
| 2026-05-04 22:08 | 51.76178 | 0.02371 | 3004 ft | 175 kts | 85° |
| 2026-05-04 22:08 | 51.76409 | 0.04262 | 3007 ft | 167 kts | 67° |
| 2026-05-04 22:08 | 51.77056 | 0.05699 | 3009 ft | 154 kts | 45° |
| 2026-05-04 22:08 | 51.77746 | 0.07077 | 3007 ft | 159 kts | 49° |
| 2026-05-04 22:09 | 51.78502 | 0.08371 | 2920 ft | 163 kts | 43° |
| 2026-05-04 22:09 | 51.79337 | 0.09651 | 2705 ft | 164 kts | 42° |
| 2026-05-04 22:09 | 51.80155 | 0.10888 | 2482 ft | 158 kts | 42° |
| 2026-05-04 22:09 | 51.80940 | 0.12073 | 2278 ft | 152 kts | 42° |
| 2026-05-04 22:10 | 51.81702 | 0.13222 | 2079 ft | 148 kts | 42° |
| 2026-05-04 22:10 | 51.82445 | 0.14343 | 1888 ft | 143 kts | 43° |
| 2026-05-04 22:10 | 51.83154 | 0.15412 | 1725 ft | 136 kts | 43° |
| 2026-05-04 22:10 | 51.83857 | 0.16473 | 1498 ft | 136 kts | 43° |
| 2026-05-04 22:11 | 51.84544 | 0.17510 | 1293 ft | 133 kts | 43° |
| 2026-05-04 22:11 | 51.85216 | 0.18537 | 1106 ft | 135 kts | 44° |
| 2026-05-04 22:11 | 51.85909 | 0.19574 | 887 ft | 137 kts | 43° |
| 2026-05-04 22:11 | 51.86598 | 0.20609 | 741 ft | 133 kts | 43° |
| 2026-05-04 22:12 | 51.87273 | 0.21639 | 536 ft | 136 kts | 44° |
| 2026-05-04 22:12 | 51.87962 | 0.22683 | 347 ft | 129 kts | 43° |
| 2026-05-04 22:12 | 51.88554 | 0.23564 | 341 ft | 99 kts | 40° |
| 2026-05-04 22:12 | 51.88939 | 0.24130 | 338 ft | 42 kts | 45° |
| 2026-05-04 22:13 | 51.89089 | 0.24503 | 340 ft | 38 kts | 66° |
| 2026-05-04 22:13 | 51.89158 | 0.24770 | 344 ft | 17 kts | 67° |
| 2026-05-04 22:13 | 51.89157 | 0.24876 | 353 ft | 8 kts | 121° |
| 2026-05-04 22:13 | 51.89164 | 0.24959 | 352 ft | 8 kts | 53° |
| 2026-05-04 22:14 | 51.89203 | 0.25021 | 348 ft | 8 kts | 44° |
| 2026-05-04 22:14 | 51.89231 | 0.25092 | 351 ft | 8 kts | 61° |
| 2026-05-04 22:14 | 51.89237 | 0.25170 | 350 ft | 7 kts | 118° |
| 2026-05-04 22:14 | 51.89205 | 0.25234 | 348 ft | 7 kts | 129° |
| 2026-05-04 22:15 | 51.89203 | 0.25307 | 348 ft | 7 kts | 58° |
| 2026-05-04 22:15 | 51.89236 | 0.25364 | 351 ft | 7 kts | 43° |
| 2026-05-04 22:15 | 51.89271 | 0.25417 | 351 ft | 7 kts | 43° |
| 2026-05-04 22:15 | 51.89305 | 0.25469 | 353 ft | 7 kts | 45° |
| 2026-05-04 22:16 | 51.89337 | 0.25522 | 350 ft | 7 kts | 45° |
| 2026-05-04 22:16 | 51.89365 | 0.25578 | 352 ft | 6 kts | 69° |
| 2026-05-04 22:16 | 51.89351 | 0.25644 | 349 ft | 6 kts | 126° |
| 2026-05-04 22:16 | 51.89322 | 0.25696 | 348 ft | 6 kts | 133° |
| 2026-05-04 22:17 | 51.89292 | 0.25745 | 348 ft | 6 kts | 134° |
| 2026-05-04 22:17 | 51.89263 | 0.25794 | 357 ft | 6 kts | 133° |
| 2026-05-04 22:17 | 51.89235 | 0.25844 | 355 ft | 6 kts | 132° |
| 2026-05-04 22:17 | 51.89207 | 0.25893 | 352 ft | 6 kts | 133° |
| 2026-05-04 22:18 | 51.89184 | 0.25942 | 348 ft | 5 kts | 106° |
| 2026-05-04 22:18 | 51.89198 | 0.25980 | 355 ft | 4 kts | 46° |
| 2026-05-04 22:18 | 51.89212 | 0.26002 | 351 ft | 0 kts | 43° |
| 2026-05-04 22:18 | 51.89213 | 0.26003 | 351 ft | 0 kts | 43° |